Jacksonville, FL (32207)

11:32 PM EDT on May 05, 2015 (GMT -0400)
San Marco | | Change Station
CLOSE
Current Station
Personal Weather Station
Location: Jacksonville, FL
Elevation: 39 ft
Nearby Weather Stations

Elev 39 ft 30.29 °N, 81.64 °W | Updated 5 minutes ago

Overcast
Overcast
69.4 °F
Feels Like 69.4 °F
N
3.7
Wind Variable Wind from NE

Today
High -- | Low -- °F
--% Chance of Precip.
Yesterday
High -- | Low -- °F
Precip. -- in
6:40 AM 8:06 PM
Waning Gibbous, 96% visible
Pressure 30.17 in
Visibility 10.0 miles
Clouds Few 1700 ft
Mostly Cloudy 5000 ft
Overcast 25000 ft
Dew Point 65 °F
Humidity 87%
Rainfall 0.00 in
Snow Depth Not available.
UV 0 out of 12
Pollen 6.00 out of 12
Air Quality Not available.
Flu Activity Local Activity
METAR KNIP 060253Z 03009KT 10SM FEW017 BKN050 OVC250 23/18 A3018 RMK AO2 SLP216 T02330183 51005

More Conditions Fewer Conditions

Pressure 30.17 in
Visibility 10.0 miles
Clouds Few 1700 ft
Mostly Cloudy 5000 ft
Overcast 25000 ft
Dew Point 65 °F
Humidity 87%
Rainfall 0.00 in
Snow Depth Not available.
UV 0 out of 12
Pollen 6.00 out of 12
Air Quality Not available.
Flu Activity Local Activity
METAR KNIP 060253Z 03009KT 10SM FEW017 BKN050 OVC250 23/18 A3018 RMK AO2 SLP216 T02330183 51005

More Conditions Fewer Conditions

10-Day Weather Forecast

Almanac

Astronomy

May. 05, 2015 Rise Set
Actual Time
Civil Twilight
Nautical Twilight
Astronomical Twilight
Moon
Length of Visible Light
Length of Day
Tomorrow will be .
, % of the Moon is Illuminated

Today's Extremes

State Highs State Lows

Community

WunderPhotos

Upload Photos

1,819,068 photos uploaded!

WunderBlogs® & News

Nearby

Air Quality

  Air Quality AQ Index Pollutant
Not available.

Snow Depth

Station Depth Elevation

Earthquake Activity

City Distance Mag. Time & Date
Minimum magnitude displayed is 2.5.

Coastal Water Temperatures

Place Temperature

Stations

Nearby Weather Stations

Station Location Temp. Windchill Dew Point Humidity Wind Precip. Elev Updated Type